Latest Weather Observations for Hobart

IDT60901

Issued at 7:01 am EDT Wednesday 20 November 2019 (issued every 10 minutes, with the page automatically refreshed every 10 minutes)

About weather observations | Map of Hobart area stations | Latest observations for Hobart area | Other Formats
Station Details ID: 094029 Name: HOBART (ELLERSLIE ROAD) Lat: -42.89 Lon: 147.33 Height: 50.5 m
Data from the previous 72 hours. | See also: Recent months at Hobart
Date/Time
EDT
Temp
°C
App
Temp
°C
Dew
Point
°C
Rel
Hum
%
Delta-T
°C
Wind Press
QNH
hPa
Press
MSL
hPa
Rain since
9am
mm
Dir  Spd
km/h
Gust
km/h
Spd
kts
Gust
kts
20/07:00am 12.4 9.9 6.5 67 2.8 N 9 13 5 7 1015.3 1015.3 0.0
20/06:30am 11.3 7.9 5.8 69 2.6 NNW 13 17 7 9 1015.0 1015.0 0.0
20/06:00am 11.0 7.5 5.5 69 2.5 N 13 19 7 10 1014.6 1014.6 0.0
20/05:30am 10.8 7.2 5.1 68 2.6 N 13 17 7 9 1014.5 1014.5 0.0
20/05:00am 10.7 7.1 5.0 68 2.6 N 13 17 7 9 1014.8 1014.8 0.0
20/04:30am 10.6 8.2 5.2 69 2.5 N 7 13 4 7 1015.0 1015.0 0.0
20/04:00am 10.4 8.1 5.6 72 2.2 N 7 11 4 6 1015.0 1015.0 0.0
20/03:30am 10.5 7.7 5.3 70 2.4 NE 9 11 5 6 1015.3 1015.3 0.0
20/03:00am 10.5 7.7 5.3 70 2.4 NNE 9 13 5 7 1015.7 1015.7 0.0
20/02:30am 10.7 7.6 5.7 71 2.3 NE 11 15 6 8 1015.8 1015.8 0.0
20/02:00am 10.6 7.5 5.6 71 2.3 NNE 11 15 6 8 1016.2 1016.2 0.0
20/01:30am 10.8 7.7 5.6 70 2.4 NE 11 13 6 7 1016.4 1016.4 0.0
20/01:00am 10.8 7.4 5.8 71 2.3 E 13 17 7 9 1016.7 1016.7 0.0
20/12:30am 10.8 8.1 5.8 71 2.3 ENE 9 13 5 7 1016.9 1016.9 0.0
20/12:00am 10.7 8.2 4.6 66 2.7 ENE 7 11 4 6 1016.9 1016.9 0.0
 
Date/Time
EDT
Temp
°C
App
Temp
°C
Dew
Point
°C
Rel
Hum
%
Delta-T
°C
Wind Press
QNH
hPa
Press
MSL
hPa
Rain since
9am
mm
Dir  Spd
km/h
Gust
km/h
Spd
kts
Gust
kts
19/11:30pm 10.7 8.3 5.3 69 2.5 SSW 7 9 4 5 1017.2 1017.2 0.0
19/11:00pm 11.0 8.2 5.1 67 2.7 ESE 9 13 5 7 1016.8 1016.8 0.0
19/10:30pm 11.0 8.1 4.5 64 2.9 ENE 9 11 5 6 1016.7 1016.7 0.0
19/10:00pm 10.7 7.8 4.6 66 2.7 NE 9 13 5 7 1016.5 1016.5 0.0
19/09:30pm 11.1 7.5 4.8 65 2.9 E 13 17 7 9 1016.0 1016.0 0.0
19/09:00pm 10.9 8.6 4.6 65 2.8 SE 6 9 3 5 1015.8 1015.8 0.0
19/08:30pm 11.4 7.4 4.8 64 3.0 SSE 15 20 8 11 1015.2 1015.2 0.0
19/08:00pm 11.8 7.1 5.2 64 3.0 SE 19 24 10 13 1014.9 1014.9 0.0
19/07:30pm 12.4 7.6 5.6 63 3.2 SE 20 26 11 14 1014.5 1014.5 0.0
19/07:00pm 12.8 8.0 5.7 62 3.3 ESE 20 28 11 15 1013.9 1013.8 0.0
19/06:30pm 13.5 9.0 5.9 60 3.6 ESE 19 28 10 15 1013.7 1013.6 0.0
19/06:00pm 13.6 9.8 6.0 60 3.6 ESE 15 22 8 12 1013.2 1013.1 0.0
19/05:30pm 13.8 9.1 6.2 60 3.6 SE 20 26 11 14 1013.1 1013.0 0.0
19/05:00pm 13.6 8.5 6.2 61 3.5 SE 22 28 12 15 1012.7 1012.6 0.0
19/04:30pm 14.1 9.4 6.0 58 3.9 SE 20 28 11 15 1012.2 1012.1 0.0
19/04:00pm 14.3 8.6 6.6 60 3.7 SE 26 33 14 18 1012.0 1011.9 0.0
19/03:30pm 14.1 8.3 6.2 59 3.8 SE 26 39 14 21 1012.0 1011.9 0.0
19/03:00pm 14.2 8.9 6.6 60 3.7 ESE 24 32 13 17 1011.6 1011.5 0.0
19/02:30pm 14.4 9.1 6.7 60 3.7 SE 24 35 13 19 1011.3 1011.2 0.0
19/02:00pm 17.4 14.1 2.6 37 6.8 W 9 20 5 11 1010.9 1010.8 0.0
19/01:30pm 18.3 14.2 2.2 34 7.3 SW 13 28 7 15 1010.8 1010.7 0.0
19/01:00pm 17.2 12.4 2.4 37 6.7 W 17 28 9 15 1010.6 1010.5 0.0
19/12:30pm 18.3 13.1 2.2 34 7.3 SW 19 33 10 18 1010.7 1010.6 0.0
19/12:00pm 16.3 9.6 3.7 43 5.8 SW 28 37 15 20 1010.7 1010.6 0.0
19/11:30am 15.6 11.2 2.7 42 5.8 SSW 15 32 8 17 1010.6 1010.5 0.0
19/11:00am 15.5 12.2 2.7 42 5.8 SSE 9 17 5 9 1010.5 1010.4 0.0
19/10:30am 15.4 13.0 1.9 40 6.0 SSE 4 7 2 4 1010.5 1010.4 0.0
19/10:00am 16.5 12.4 2.2 38 6.4 SW 13 22 7 12 1010.1 1010.1 0.0
19/09:30am 15.7 10.7 3.5 44 5.6 SSW 19 39 10 21 1009.9 1009.9 0.0
19/09:00am 15.0 11.5 1.5 40 5.9 NW 9 24 5 13 1010.0 1010.0 0.0
19/08:30am 14.9 12.1 3.1 45 5.3 S 7 15 4 8 1009.8 1009.8 0.0
19/08:00am 13.9 10.8 3.4 49 4.7 SW 9 13 5 7 1009.6 1009.6 0.0
19/07:30am 13.2 9.9 4.4 55 4.0 NW 11 19 6 10 1009.1 1009.1 0.0
19/07:00am 11.8 8.0 4.1 59 3.5 WNW 13 19 7 10 1008.7 1008.7 0.0
19/06:30am 11.6 8.7 4.6 62 3.2 NW 9 15 5 8 1008.2 1008.2 0.0
19/06:00am 10.2 7.9 4.6 68 2.5 WNW 6 9 3 5 1007.9 1007.9 0.0
19/05:30am 9.4 6.4 4.2 70 2.3 WSW 9 13 5 7 1007.6 1007.6 0.0
19/05:00am 9.1 5.4 4.3 72 2.1 WSW 13 17 7 9 1007.1 1007.1 0.0
19/04:30am 8.6 4.4 4.0 73 2.0 WSW 15 17 8 9 1006.8 1006.8 0.0
19/04:00am 8.8 6.2 4.0 72 2.1 SW 7 11 4 6 1006.5 1006.5 0.0
19/03:30am 9.6 7.6 4.4 70 2.3 WNW 4 9 2 5 1006.4 1006.4 0.0
19/03:00am 9.3 4.8 4.3 71 2.2 WSW 17 20 9 11 1006.1 1006.1 0.0
19/02:30am 10.3 7.4 4.5 67 2.6 W 9 15 5 8 1005.9 1005.9 0.0
19/02:00am 11.5 7.5 4.7 63 3.1 NW 15 22 8 12 1005.8 1005.8 0.0
19/01:30am 11.4 8.5 4.6 63 3.1 NW 9 9 5 5 1005.8 1005.8 0.0
19/01:00am 12.1 9.6 4.6 60 3.4 W 7 13 4 7 1005.2 1005.2 0.0
19/12:30am 12.9 10.0 4.6 57 3.8 N 9 17 5 9 1005.4 1005.4 0.0
19/12:00am 13.7 11.3 4.3 53 4.3 SE 6 13 3 7 1005.4 1005.4 0.0
 
Date/Time
EDT
Temp
°C
App
Temp
°C
Dew
Point
°C
Rel
Hum
%
Delta-T
°C
Wind Press
QNH
hPa
Press
MSL
hPa
Rain since
9am
mm
Dir  Spd
km/h
Gust
km/h
Spd
kts
Gust
kts
18/11:30pm 14.3 9.5 4.6 52 4.5 N 19 28 10 15 1005.1 1005.1 0.0
18/11:00pm 14.2 10.9 4.5 52 4.5 NNW 11 19 6 10 1004.6 1004.6 0.0
18/10:37pm 14.8 10.9 3.6 47 5.1 NNE 13 39 7 21 1004.3 1004.3 0.0
18/10:30pm 14.6 11.3 6.2 57 4.0 NE 13 20 7 11 1004.4 1004.4 0.0
18/10:00pm 14.6 10.7 6.9 60 3.8 ESE 17 28 9 15 1003.9 1003.9 0.0
18/09:30pm 15.3 10.9 6.6 56 4.2 ESE 19 33 10 18 1003.2 1003.2 0.0
18/09:00pm 16.2 8.9 4.6 46 5.5 WSW 32 52 17 28 1003.1 1003.1 0.0
18/08:45pm 16.4 9.8 4.1 44 5.7 W 28 70 15 38 1002.9 1002.9 0.0
18/08:30pm 16.0 11.8 5.6 50 5.0 W 17 26 9 14 1003.0 1003.0 0.0
18/08:00pm 15.6 9.8 6.3 54 4.5 WNW 26 41 14 22 1002.8 1002.8 0.0
18/07:30pm 15.8 9.4 6.8 55 4.4 NW 30 46 16 25 1002.5 1002.5 0.0
18/07:00pm 16.0 9.2 6.7 54 4.6 NW 32 50 17 27 1002.3 1002.3 0.0
18/06:30pm 16.4 10.3 6.8 53 4.7 WNW 28 54 15 29 1002.1 1002.1 0.0
18/06:01pm 17.2 10.7 6.7 50 5.2 NW 30 50 16 27 1001.8 1001.8 0.0
18/06:00pm 17.2 10.7 6.7 50 5.2 NW 30 46 16 25 1002.0 1002.0 0.0
18/05:30pm 18.8 12.7 6.6 45 6.1 NW 28 46 15 25 1001.7 1001.7 0.0
18/05:00pm 19.2 13.0 6.3 43 6.5 NW 28 48 15 26 1001.4 1001.4 0.0
18/04:30pm 19.2 12.6 6.0 42 6.5 NW 30 52 16 28 1001.6 1001.6 0.0
18/04:00pm 20.3 13.4 6.3 40 7.1 NW 32 50 17 27 1001.6 1001.6 0.0
18/03:30pm 20.1 12.3 6.5 41 6.8 NW 37 57 20 31 1001.4 1001.4 0.0
18/03:00pm 20.5 13.5 6.1 39 7.3 NW 32 57 17 31 1001.5 1001.5 0.0
18/02:30pm 20.1 13.0 5.7 39 7.1 NW 32 57 17 31 1001.7 1001.7 0.0
18/02:00pm 20.1 12.5 5.7 39 7.2 NW 35 63 19 34 1001.6 1001.6 0.0
18/01:54pm 20.5 13.3 5.7 38 7.4 NW 33 63 18 34 1001.6 1001.6 0.0
18/01:31pm 20.7 13.8 6.3 39 7.3 WNW 32 59 17 32 1002.0 1002.0 0.0
18/01:30pm 20.5 13.8 5.7 38 7.4 WNW 30 59 16 32 1001.9 1001.9 0.0
18/01:29pm 20.4 13.3 5.6 38 7.3 WNW 32 59 17 32 1001.9 1001.9 0.0
18/01:00pm 19.9 13.7 6.3 41 6.8 WNW 28 72 15 39 1002.2 1002.2 0.0
18/12:32pm 19.0 13.7 5.1 40 6.8 WNW 22 56 12 30 1002.2 1002.2 0.0
18/12:30pm 18.9 13.7 5.4 41 6.6 WNW 22 46 12 25 1002.3 1002.3 0.0
18/12:00pm 17.5 11.5 5.1 44 6.0 W 26 50 14 27 1002.5 1002.5 0.0
18/11:30am 17.7 11.3 5.0 43 6.1 NNW 28 54 15 29 1002.3 1002.3 0.0
18/11:20am 18.7 11.6 5.5 42 6.5 NNW 32 61 17 33 1002.1 1002.1 0.0
18/11:18am 18.7 11.5 5.2 41 6.6 NNW 32 59 17 32 1001.9 1001.9 0.0
18/11:15am 18.9 11.8 5.7 42 6.5 NNW 32 61 17 33 1002.3 1002.3 0.0
18/11:00am 18.3 9.7 4.8 41 6.5 NW 39 76 21 41 1002.2 1002.2 0.0
18/10:55am 18.1 10.4 5.3 43 6.2 NW 35 76 19 41 1002.4 1002.4 0.0
18/10:50am 17.4 11.0 5.4 45 5.8 NW 28 52 15 28 1002.7 1002.7 0.0
18/10:30am 16.1 11.4 5.1 48 5.2 NW 19 52 10 28 1003.3 1003.3 0.0
18/10:09am 15.9 11.0 5.2 49 5.1 WNW 20 50 11 27 1003.1 1003.1 0.0
18/10:00am 15.9 11.2 5.2 49 5.1 WNW 19 46 10 25 1003.5 1003.5 0.0
18/09:30am 15.3 10.6 5.0 50 4.9 NNW 19 43 10 23 1003.4 1003.4 0.0
18/09:00am 14.4 9.7 5.0 53 4.4 N 19 37 10 20 1003.4 1003.4 0.0
18/08:42am 14.8 8.2 4.2 49 4.9 NNW 28 70 15 38 1003.7 1003.7 0.0
18/08:38am 14.6 8.8 4.6 51 4.7 NNW 24 46 13 25 1003.9 1003.9 0.0
18/08:30am 14.3 9.5 4.6 52 4.5 NNW 19 39 10 21 1004.1 1004.1 0.0
18/08:00am 13.6 9.2 5.0 56 4.0 N 17 32 9 17 1004.3 1004.3 0.0
18/07:30am 12.8 7.9 5.2 60 3.5 NNE 20 32 11 17 1004.3 1004.3 0.0
18/07:07am 13.0 6.5 4.9 58 3.7 N 28 46 15 25 1004.4 1004.4 0.0
18/07:00am 13.2 7.5 5.1 58 3.8 N 24 43 13 23 1004.0 1004.0 0.0
18/06:30am 12.2 6.1 4.7 60 3.4 N 26 44 14 24 1004.6 1004.6 0.0
18/06:00am 11.7 5.1 4.4 61 3.3 N 28 48 15 26 1005.1 1005.1 0.0
18/05:59am 11.7 5.1 4.4 61 3.3 N 28 48 15 26 1005.1 1005.1 0.0
18/05:30am 11.3 5.8 4.1 61 3.2 NNW 22 39 12 21 1005.6 1005.6 0.0
18/05:08am 11.1 4.8 3.9 61 3.2 NNW 26 52 14 28 1005.8 1005.8 0.0
18/05:00am 11.1 6.0 3.9 61 3.2 N 20 39 11 21 1006.2 1006.2 0.0
18/04:30am 11.0 5.0 3.5 60 3.3 NNW 24 37 13 20 1006.4 1006.4 0.0
18/04:00am 10.9 4.1 3.2 59 3.4 N 28 46 15 25 1006.9 1006.9 0.0
18/03:30am 11.0 3.4 2.8 57 3.6 NNW 32 52 17 28 1007.6 1007.6 0.0
18/03:01am 10.9 4.0 2.7 57 3.5 NNW 28 46 15 25 1008.0 1008.0 0.0
18/03:00am 10.9 3.6 2.7 57 3.6 NW 30 46 16 25 1008.1 1008.1 0.0
18/02:30am 10.7 3.4 2.3 56 3.6 NNW 30 44 16 24 1008.9 1008.9 0.0
18/02:05am 10.6 3.2 1.9 55 3.7 NNW 30 48 16 26 1009.0 1009.0 0.0
18/02:00am 10.7 2.9 1.8 54 3.8 NNW 32 48 17 26 1009.2 1009.2 0.0
18/01:59am 10.7 3.3 1.8 54 3.8 NNW 30 48 16 26 1009.3 1009.3 0.0
18/01:30am 10.7 3.7 1.8 54 3.8 NNW 28 37 15 20 1010.0 1010.0 0.0
18/01:24am 10.6 3.6 1.7 54 3.8 NNW 28 46 15 25 1010.2 1010.2 0.0
18/01:00am 10.6 3.9 1.7 54 3.8 NNW 26 41 14 22 1010.8 1010.7 0.0
18/12:30am 10.7 4.8 1.8 54 3.8 NNW 22 35 12 19 1011.3 1011.2 0.0
18/12:00am 10.9 3.8 1.4 52 4.0 NNW 28 39 15 21 1011.6 1011.5 0.0
 
Date/Time
EDT
Temp
°C
App
Temp
°C
Dew
Point
°C
Rel
Hum
%
Delta-T
°C
Wind Press
QNH
hPa
Press
MSL
hPa
Rain since
9am
mm
Dir  Spd
km/h
Gust
km/h
Spd
kts
Gust
kts
17/11:31pm 11.0 3.5 1.5 52 4.0 NW 30 48 16 26 1011.7 1011.6 0.0
17/11:30pm 11.0 3.2 1.5 52 4.0 NW 32 48 17 26 1011.7 1011.6 0.0
17/11:00pm 11.1 4.0 1.6 52 4.0 NW 28 39 15 21 1012.4 1012.3 0.0
17/10:30pm 11.3 4.2 1.5 51 4.1 NW 28 43 15 23 1013.2 1013.1 0.0
17/10:00pm 11.5 4.4 1.5 50 4.2 NNW 28 37 15 20 1013.7 1013.6 0.0
17/09:30pm 11.8 5.9 1.4 49 4.4 NNW 22 35 12 19 1013.9 1013.8 0.0
17/09:00pm 12.1 6.5 1.1 47 4.6 WNW 20 32 11 17 1014.1 1014.1 0.0
17/08:30pm 12.6 7.0 1.0 45 4.9 NW 20 30 11 16 1014.2 1014.2 0.0
17/08:00pm 13.0 7.3 0.7 43 5.2 NW 20 32 11 17 1014.4 1014.4 0.0
17/07:30pm 13.2 6.8 0.9 43 5.2 WNW 24 37 13 20 1014.1 1014.1 0.0
17/07:00pm 13.5 7.0 0.2 40 5.6 WNW 24 35 13 19 1014.3 1014.3 0.0
17/06:30pm 14.1 8.1 1.1 41 5.6 NW 22 33 12 18 1014.1 1014.1 0.0
17/06:00pm 14.7 7.9 0.5 38 6.1 NW 26 39 14 21 1014.4 1014.4 0.0
17/05:30pm 14.8 7.2 0.6 38 6.1 NNW 30 43 16 23 1014.4 1014.4 0.0
17/05:00pm 16.3 10.5 0.0 33 7.0 NW 20 33 11 18 1014.2 1014.2 0.0
17/04:30pm 16.4 11.5 -0.3 32 7.1 W 15 24 8 13 1014.3 1014.3 0.0
17/04:00pm 16.3 9.9 0.8 35 6.7 SW 24 35 13 19 1014.2 1014.2 0.0
17/03:30pm 16.7 11.4 -0.5 31 7.3 W 17 28 9 15 1013.9 1013.8 0.0
17/03:00pm 17.4 12.0 1.0 33 7.2 SW 19 30 10 16 1014.0 1014.0 0.0
17/02:30pm 15.3 10.1 -0.1 35 6.5 W 17 26 9 14 1014.5 1014.5 0.0
17/02:00pm 15.6 8.6 -0.2 34 6.7 SW 26 43 14 23 1014.8 1014.8 0.0
17/01:30pm 15.8 9.3 0.4 35 6.6 SW 24 39 13 21 1014.7 1014.7 0.0
17/01:00pm 14.3 10.0 1.2 41 5.6 SW 13 26 7 14 1014.7 1014.7 0.0
17/12:30pm 14.6 9.9 1.2 40 5.8 WSW 15 24 8 13 1014.8 1014.8 0.0
17/12:00pm 13.3 7.2 0.7 42 5.3 SW 22 32 12 17 1015.1 1015.1 0.0
17/11:30am 13.4 9.2 1.4 44 5.2 WSW 13 33 7 18 1015.1 1015.1 0.0
17/11:07am 13.3 5.9 -0.7 38 5.7 SW 28 46 15 25 1015.7 1015.7 0.0
17/11:00am 13.4 6.1 0.1 40 5.5 SW 28 44 15 24 1015.6 1015.6 0.0
17/10:30am 12.8 5.3 1.5 46 4.8 SW 30 44 16 24 1015.4 1015.4 0.0
17/10:00am 11.9 6.7 0.4 45 4.8 SSW 17 52 9 28 1015.3 1015.3 0.0
17/09:30am 10.2 7.1 1.3 54 3.7 N 7 11 4 6 1015.6 1015.6 0.0
17/09:00am 9.7 5.5 1.6 57 3.4 WSW 13 28 7 15 1015.3 1015.3 0.0
17/08:30am 9.4 5.4 0.8 55 3.5 SSW 11 22 6 12 1015.1 1015.1 0.0
17/08:00am 8.9 3.8 0.9 57 3.3 WSW 17 28 9 15 1014.9 1014.9 0.0
17/07:30am 9.4 5.8 0.3 53 3.7 NNW 9 17 5 9 1014.5 1014.5 0.0

Latest Capital City Observations: Canberra | Sydney | Melbourne | Brisbane | Adelaide | Perth | Hobart | Darwin

Other formats

Comma delimited format used in spreadsheet applications
http://www.bom.gov.au/fwo/IDT60901/IDT60901.94970.axf

JavaScript Object Notation format (JSON) in row-major order
http://www.bom.gov.au/fwo/IDT60901/IDT60901.94970.json

Data quality

Most of these data are generated automatically and are frequently updated. Quality checks on data are not normally performed. It is possible for incorrect values to appear. Refer to information at About Latest Weather Observations and please check the disclaimer before using these data.